Time;durP1;ratioP1;P1;durP2;ratioP2;P2;SDS_P1;SDS_P2;PMS_P1;PMS_P2;Temp;Humidity;BMP_temperature;BMP_pressure;BME280_temperature;BME280_humidity;BME280_pressure;Samples;Min_cycle;Max_cycle;Signal;HPM_P1;HPM_P2
2023/12/14 00:02:09;;;;;;;;;;;19.90;48.40;;;;;;5100578;28;19928;-62
2023/12/14 00:04:36;;;;;;;;;;;20.00;48.50;;;;;;5103517;28;19993;-62
2023/12/14 00:07:02;;;;;;;;;;;19.90;48.40;;;;;;5115399;28;19928;-62
2023/12/14 00:09:31;;;;;;;;;;;20.00;48.40;;;;;;5115311;28;19935;-62
2023/12/14 00:11:57;;;;;;;;;;;19.90;48.30;;;;;;5105846;28;19932;-62
2023/12/14 00:14:24;;;;;;;;;;;20.00;48.40;;;;;;5090724;28;20006;-62
2023/12/14 00:16:51;;;;;;;;;;;19.90;48.30;;;;;;5096248;28;19931;-62
2023/12/14 00:19:18;;;;;;;;;;;20.00;48.30;;;;;;5113742;28;19955;-62
2023/12/14 00:21:44;;;;;;;;;;;20.00;48.30;;;;;;5108671;27;20369;-62
2023/12/14 00:24:11;;;;;;;;;;;20.00;48.30;;;;;;5116469;27;19931;-61
2023/12/14 00:26:39;;;;;;;;;;;20.00;48.30;;;;;;5097259;28;19934;-62
2023/12/14 00:29:06;;;;;;;;;;;20.00;48.30;;;;;;5105885;28;19930;-62
2023/12/14 00:31:33;;;;;;;;;;;20.00;48.90;;;;;;5091064;28;19934;-62
2023/12/14 00:34:00;;;;;;;;;;;20.00;48.20;;;;;;5114584;27;19924;-62
2023/12/14 00:36:26;;;;;;;;;;;19.90;48.10;;;;;;5114861;28;19924;-62
2023/12/14 00:38:54;;;;;;;;;;;19.90;48.10;;;;;;5101273;28;19928;-62
2023/12/14 00:41:21;;;;;;;;;;;19.90;48.00;;;;;;5098229;28;19991;-61
2023/12/14 00:43:49;;;;;;;;;;;19.90;48.00;;;;;;5097093;28;19924;-62
2023/12/14 00:46:16;;;;;;;;;;;19.90;48.00;;;;;;5097063;28;19924;-62
2023/12/14 00:48:43;;;;;;;;;;;19.90;48.00;;;;;;5098533;27;19950;-62
2023/12/14 00:51:10;;;;;;;;;;;19.90;48.00;;;;;;5101916;28;19931;-62
2023/12/14 00:53:36;;;;;;;;;;;19.90;48.00;;;;;;5114495;28;19924;-62
2023/12/14 00:56:03;;;;;;;;;;;19.90;47.90;;;;;;5097252;28;19938;-62
2023/12/14 00:58:30;;;;;;;;;;;19.90;47.90;;;;;;5115241;28;19976;-62
2023/12/14 01:00:58;;;;;;;;;;;19.90;47.90;;;;;;5097181;28;19954;-62
2023/12/14 01:03:25;;;;;;;;;;;19.90;47.90;;;;;;5104684;28;19924;-62
2023/12/14 01:05:52;;;;;;;;;;;19.90;47.90;;;;;;5096541;28;19927;-62
2023/12/14 01:08:19;;;;;;;;;;;19.90;47.90;;;;;;5094982;28;19931;-62
2023/12/14 01:10:45;;;;;;;;;;;19.90;47.90;;;;;;5104277;28;19924;-62
2023/12/14 01:13:12;;;;;;;;;;;19.90;47.80;;;;;;5095900;28;19969;-62
2023/12/14 01:15:39;;;;;;;;;;;19.90;47.80;;;;;;5097757;28;19924;-62
2023/12/14 01:18:07;;;;;;;;;;;19.90;47.80;;;;;;5095820;28;19969;-62
2023/12/14 01:20:34;;;;;;;;;;;19.90;47.80;;;;;;5096284;28;20027;-62
2023/12/14 01:23:01;;;;;;;;;;;19.90;47.80;;;;;;5095255;28;20289;-62
2023/12/14 01:25:27;;;;;;;;;;;19.90;47.70;;;;;;5104708;28;19924;-62
2023/12/14 01:27:54;;;;;;;;;;;19.90;47.70;;;;;;5105193;28;19942;-62
2023/12/14 01:30:21;;;;;;;;;;;19.90;47.70;;;;;;5096301;28;19927;-61
2023/12/14 01:32:48;;;;;;;;;;;19.90;47.70;;;;;;5115541;27;19924;-61
2023/12/14 01:35:16;;;;;;;;;;;19.90;47.70;;;;;;5114546;27;19940;-62
2023/12/14 01:37:43;;;;;;;;;;;19.90;47.70;;;;;;5096210;28;19973;-62
2023/12/14 01:40:10;;;;;;;;;;;19.80;47.60;;;;;;5090646;28;19942;-62
2023/12/14 01:42:36;;;;;;;;;;;19.90;47.60;;;;;;5104451;28;19931;-62
2023/12/14 01:45:03;;;;;;;;;;;19.90;47.60;;;;;;5099963;27;19930;-62
2023/12/14 01:47:30;;;;;;;;;;;19.80;47.50;;;;;;5103298;28;20032;-62
2023/12/14 01:49:57;;;;;;;;;;;19.90;47.60;;;;;;5096133;28;19923;-62
2023/12/14 01:52:25;;;;;;;;;;;19.90;47.60;;;;;;5113565;27;19931;-62
2023/12/14 01:54:52;;;;;;;;;;;19.90;47.60;;;;;;5108744;28;19924;-61
2023/12/14 01:57:18;;;;;;;;;;;19.90;47.60;;;;;;5104753;28;19932;-61
2023/12/14 01:59:45;;;;;;;;;;;19.80;47.40;;;;;;5104870;28;19924;-61
2023/12/14 02:02:12;;;;;;;;;;;19.90;47.50;;;;;;5102269;28;19947;-61
2023/12/14 02:04:39;;;;;;;;;;;19.90;47.50;;;;;;5099844;27;19920;-61
2023/12/14 02:07:05;;;;;;;;;;;19.90;47.50;;;;;;5105489;28;19973;-61
2023/12/14 02:09:34;;;;;;;;;;;19.90;47.50;;;;;;5108233;28;19928;-61
2023/12/14 02:12:00;;;;;;;;;;;19.90;47.40;;;;;;5101745;28;19953;-61
2023/12/14 02:14:27;;;;;;;;;;;19.90;47.40;;;;;;5097793;28;19928;-61
2023/12/14 02:16:54;;;;;;;;;;;19.90;47.40;;;;;;5091748;28;19963;-61
2023/12/14 02:19:21;;;;;;;;;;;19.90;47.40;;;;;;5103021;28;19981;-61
2023/12/14 02:21:48;;;;;;;;;;;19.90;47.40;;;;;;5112910;28;19941;-62
2023/12/14 02:24:16;;;;;;;;;;;19.90;47.40;;;;;;5094100;28;19931;-62
2023/12/14 02:26:42;;;;;;;;;;;19.90;47.30;;;;;;5094909;28;19992;-62
2023/12/14 02:29:09;;;;;;;;;;;19.80;47.30;;;;;;5102573;28;19954;-62
2023/12/14 02:31:36;;;;;;;;;;;19.80;47.30;;;;;;5095408;28;19931;-62
2023/12/14 02:34:03;;;;;;;;;;;19.80;47.20;;;;;;5083124;28;19928;-63
2023/12/14 02:36:29;;;;;;;;;;;19.80;47.20;;;;;;5101741;28;19927;-62
2023/12/14 02:38:56;;;;;;;;;;;19.80;47.20;;;;;;5106965;28;19927;-62
2023/12/14 02:41:24;;;;;;;;;;;19.80;47.20;;;;;;5102355;28;19931;-62
2023/12/14 02:43:51;;;;;;;;;;;19.80;47.20;;;;;;5108895;27;19932;-62
2023/12/14 02:46:18;;;;;;;;;;;19.80;47.20;;;;;;5113629;27;19931;-62
2023/12/14 02:48:45;;;;;;;;;;;19.80;47.20;;;;;;5111628;28;19928;-62
2023/12/14 02:51:13;;;;;;;;;;;19.80;47.20;;;;;;5100215;28;19924;-62
2023/12/14 02:53:40;;;;;;;;;;;19.80;47.10;;;;;;5108489;28;19928;-62
2023/12/14 02:56:07;;;;;;;;;;;19.80;47.10;;;;;;5110186;28;19953;-62
2023/12/14 02:58:35;;;;;;;;;;;19.80;47.10;;;;;;5104085;28;19927;-62
2023/12/14 03:01:02;;;;;;;;;;;19.80;47.10;;;;;;5099043;28;19932;-62
2023/12/14 03:03:29;;;;;;;;;;;19.80;47.10;;;;;;5098769;27;19924;-62
2023/12/14 03:05:55;;;;;;;;;;;19.80;47.10;;;;;;5093118;28;19950;-62
2023/12/14 03:08:22;;;;;;;;;;;19.80;47.00;;;;;;5110561;28;19923;-62
2023/12/14 03:10:49;;;;;;;;;;;19.80;47.00;;;;;;5105210;28;19931;-62
2023/12/14 03:13:16;;;;;;;;;;;19.80;47.00;;;;;;5101797;28;19935;-62
2023/12/14 03:15:44;;;;;;;;;;;19.80;47.00;;;;;;5082158;28;20414;-62
2023/12/14 03:18:12;;;;;;;;;;;19.80;47.00;;;;;;5102530;27;19951;-63
2023/12/14 03:20:38;;;;;;;;;;;19.80;47.00;;;;;;5093557;28;19928;-63
2023/12/14 03:23:05;;;;;;;;;;;19.80;47.00;;;;;;5103045;28;19927;-62
2023/12/14 03:25:32;;;;;;;;;;;19.80;47.00;;;;;;5101944;28;19928;-62
2023/12/14 03:27:59;;;;;;;;;;;19.80;47.00;;;;;;5105405;28;19928;-61
2023/12/14 03:30:26;;;;;;;;;;;19.80;46.90;;;;;;5089353;28;19931;-62
2023/12/14 03:32:54;;;;;;;;;;;19.80;47.00;;;;;;5097633;28;19928;-62
2023/12/14 03:35:22;;;;;;;;;;;19.80;46.90;;;;;;5091590;28;19963;-62
2023/12/14 03:37:48;;;;;;;;;;;19.80;46.90;;;;;;5116674;28;20014;-62
2023/12/14 03:40:15;;;;;;;;;;;19.80;46.90;;;;;;5098518;28;19935;-62
2023/12/14 03:42:42;;;;;;;;;;;19.80;46.90;;;;;;5115868;28;19939;-62
2023/12/14 03:45:10;;;;;;;;;;;19.80;46.90;;;;;;5106182;28;20018;-63
2023/12/14 03:47:37;;;;;;;;;;;19.80;46.90;;;;;;5097955;28;19931;-61
2023/12/14 03:50:06;;;;;;;;;;;19.80;46.80;;;;;;5094616;27;19950;-62
2023/12/14 03:52:32;;;;;;;;;;;19.80;46.80;;;;;;5107042;27;19928;-62
2023/12/14 03:55:00;;;;;;;;;;;19.80;46.80;;;;;;5100432;28;19924;-61
2023/12/14 03:57:26;;;;;;;;;;;19.80;46.80;;;;;;5115447;28;19934;-62
2023/12/14 03:59:53;;;;;;;;;;;19.80;47.40;;;;;;5115346;28;19924;-61
2023/12/14 04:02:20;;;;;;;;;;;19.80;46.80;;;;;;5087940;28;19931;-61
2023/12/14 04:04:47;;;;;;;;;;;19.80;46.80;;;;;;5101328;28;19953;-62
2023/12/14 04:07:15;;;;;;;;;;;19.80;46.70;;;;;;5106259;28;19924;-62
2023/12/14 04:09:42;;;;;;;;;;;19.80;46.70;;;;;;5096560;28;19923;-62
2023/12/14 04:12:09;;;;;;;;;;;19.80;46.70;;;;;;5098085;28;19924;-62
2023/12/14 04:14:35;;;;;;;;;;;19.80;46.70;;;;;;5088369;28;19928;-62
2023/12/14 04:17:02;;;;;;;;;;;19.80;46.70;;;;;;5094845;28;19927;-62
2023/12/14 04:19:29;;;;;;;;;;;19.80;46.70;;;;;;5095688;28;19927;-62
2023/12/14 04:21:56;;;;;;;;;;;19.80;46.70;;;;;;5109336;28;19934;-62
2023/12/14 04:24:24;;;;;;;;;;;19.80;46.70;;;;;;5097768;28;19923;-62
2023/12/14 04:26:50;;;;;;;;;;;19.80;46.70;;;;;;5102261;28;19946;-62
2023/12/14 04:29:17;;;;;;;;;;;19.80;46.70;;;;;;5088387;28;19959;-62
2023/12/14 04:31:44;;;;;;;;;;;19.80;46.70;;;;;;5103012;28;19927;-62
2023/12/14 04:34:15;;;;;;;;;;;19.80;46.60;;;;;;5103833;28;19931;-62
2023/12/14 04:36:42;;;;;;;;;;;19.80;46.60;;;;;;5105551;28;19930;-62
2023/12/14 04:39:09;;;;;;;;;;;19.80;47.20;;;;;;5098879;28;19959;-61
2023/12/14 04:41:37;;;;;;;;;;;19.80;46.60;;;;;;5106135;28;19923;-62
2023/12/14 04:44:04;;;;;;;;;;;19.80;46.60;;;;;;5097203;28;19923;-62
2023/12/14 04:46:30;;;;;;;;;;;19.80;46.60;;;;;;5105907;28;19924;-62
2023/12/14 04:48:57;;;;;;;;;;;19.80;46.60;;;;;;5097453;28;20442;-62
2023/12/14 04:51:24;;;;;;;;;;;19.80;46.60;;;;;;5115202;28;19976;-62
2023/12/14 04:53:52;;;;;;;;;;;19.80;46.60;;;;;;5110615;28;20373;-62
2023/12/14 04:56:19;;;;;;;;;;;19.80;46.60;;;;;;5112817;28;19936;-62
2023/12/14 04:58:47;;;;;;;;;;;19.80;46.60;;;;;;5095974;28;19931;-62
2023/12/14 05:01:14;;;;;;;;;;;19.80;46.60;;;;;;5103591;28;19924;-62
2023/12/14 05:03:41;;;;;;;;;;;19.80;46.50;;;;;;5104001;28;19923;-62
2023/12/14 05:06:08;;;;;;;;;;;19.80;46.50;;;;;;5114683;28;19931;-62
2023/12/14 05:08:35;;;;;;;;;;;19.80;46.50;;;;;;5115110;28;19924;-62
2023/12/14 05:11:02;;;;;;;;;;;19.80;46.50;;;;;;5102190;28;19931;-62
2023/12/14 05:13:29;;;;;;;;;;;19.80;46.50;;;;;;5108700;28;19924;-62
2023/12/14 05:15:57;;;;;;;;;;;19.80;46.50;;;;;;5093775;28;19923;-62
2023/12/14 05:18:24;;;;;;;;;;;19.80;46.40;;;;;;5087785;28;19928;-62
2023/12/14 05:20:51;;;;;;;;;;;19.70;46.40;;;;;;5104693;28;19927;-63
2023/12/14 05:23:17;;;;;;;;;;;19.80;46.40;;;;;;5113521;27;19924;-62
2023/12/14 05:25:44;;;;;;;;;;;19.80;46.40;;;;;;5095905;28;20090;-62
2023/12/14 05:28:11;;;;;;;;;;;19.80;46.40;;;;;;5099137;28;19927;-62
2023/12/14 05:30:38;;;;;;;;;;;19.80;46.40;;;;;;5114622;28;19937;-62
2023/12/14 05:33:06;;;;;;;;;;;19.80;46.30;;;;;;5095525;28;19924;-62
2023/12/14 05:35:33;;;;;;;;;;;19.80;46.40;;;;;;5102972;28;19931;-62
2023/12/14 05:38:00;;;;;;;;;;;19.80;46.30;;;;;;5104263;28;19927;-62
2023/12/14 05:40:26;;;;;;;;;;;19.80;46.30;;;;;;5095662;28;19934;-62
2023/12/14 05:42:53;;;;;;;;;;;19.70;46.20;;;;;;5113607;28;19928;-62
2023/12/14 05:45:20;;;;;;;;;;;19.80;46.30;;;;;;5112824;28;20022;-62
2023/12/14 05:47:47;;;;;;;;;;;19.80;46.30;;;;;;5096436;28;19935;-63
2023/12/14 05:50:15;;;;;;;;;;;19.80;46.30;;;;;;5104625;28;19923;-62
2023/12/14 05:52:42;;;;;;;;;;;19.70;46.20;;;;;;5096254;28;19977;-63
2023/12/14 05:55:09;;;;;;;;;;;19.80;46.30;;;;;;5095376;28;19924;-62
2023/12/14 05:57:36;;;;;;;;;;;19.70;46.20;;;;;;5096229;28;19920;-62
2023/12/14 06:00:04;;;;;;;;;;;19.70;46.10;;;;;;5096733;28;19928;-62
2023/12/14 06:02:31;;;;;;;;;;;19.70;46.10;;;;;;5095774;28;19928;-62
2023/12/14 06:04:58;;;;;;;;;;;19.80;46.20;;;;;;5113111;28;19923;-62
2023/12/14 06:07:26;;;;;;;;;;;19.80;46.20;;;;;;5113663;28;20018;-62
2023/12/14 06:09:53;;;;;;;;;;;19.80;46.20;;;;;;5093727;28;19924;-62
2023/12/14 06:12:20;;;;;;;;;;;19.80;46.20;;;;;;5122475;27;20342;-62
2023/12/14 06:14:46;;;;;;;;;;;19.70;46.10;;;;;;5117716;27;19930;-62
2023/12/14 06:17:13;;;;;;;;;;;19.70;46.10;;;;;;5094542;28;19931;-62
2023/12/14 06:19:40;;;;;;;;;;;19.80;46.10;;;;;;5110207;28;19932;-63
2023/12/14 06:22:07;;;;;;;;;;;19.80;46.10;;;;;;5093847;27;19928;-63
2023/12/14 06:24:35;;;;;;;;;;;19.70;46.10;;;;;;5100450;28;19923;-63
2023/12/14 06:27:02;;;;;;;;;;;19.80;46.10;;;;;;5102978;28;19984;-62
2023/12/14 06:29:28;;;;;;;;;;;19.70;46.00;;;;;;5104253;27;19980;-61
2023/12/14 06:31:55;;;;;;;;;;;19.70;46.10;;;;;;5094394;28;19927;-63
2023/12/14 06:34:22;;;;;;;;;;;19.70;46.00;;;;;;5096148;28;19924;-63
2023/12/14 06:36:49;;;;;;;;;;;19.70;46.00;;;;;;5119710;27;19931;-62
2023/12/14 06:39:16;;;;;;;;;;;19.70;46.60;;;;;;5096134;28;19927;-62
2023/12/14 06:41:44;;;;;;;;;;;19.70;46.00;;;;;;5097634;28;20125;-62
2023/12/14 06:44:11;;;;;;;;;;;19.70;46.00;;;;;;5102016;28;19962;-61
2023/12/14 06:46:38;;;;;;;;;;;19.70;46.00;;;;;;5089225;28;19965;-62
2023/12/14 06:49:04;;;;;;;;;;;19.70;46.00;;;;;;5095407;28;19920;-61
2023/12/14 06:51:31;;;;;;;;;;;19.70;46.00;;;;;;5095043;28;19924;-62
2023/12/14 06:53:58;;;;;;;;;;;19.70;46.00;;;;;;5109364;28;19969;-62
2023/12/14 06:56:25;;;;;;;;;;;19.70;45.90;;;;;;5095253;28;19931;-61
2023/12/14 06:58:53;;;;;;;;;;;19.70;45.90;;;;;;5107677;28;19946;-62
2023/12/14 07:01:20;;;;;;;;;;;19.70;45.90;;;;;;5102174;28;19923;-61
2023/12/14 07:03:47;;;;;;;;;;;19.70;45.90;;;;;;5088418;28;19924;-62
2023/12/14 07:06:14;;;;;;;;;;;19.70;45.90;;;;;;5106707;28;19924;-62
2023/12/14 07:08:40;;;;;;;;;;;19.70;45.90;;;;;;5102202;28;19924;-62
2023/12/14 07:11:07;;;;;;;;;;;19.70;45.90;;;;;;5100540;28;20015;-62
2023/12/14 07:13:36;;;;;;;;;;;19.70;45.90;;;;;;5102435;28;20425;-62
2023/12/14 07:16:06;;;;;;;;;;;19.70;45.90;;;;;;5100560;28;19973;-61
2023/12/14 07:18:32;;;;;;;;;;;19.70;45.90;;;;;;5088110;28;20339;-61
2023/12/14 07:20:59;;;;;;;;;;;19.70;45.90;;;;;;5088268;28;19924;-61
2023/12/14 07:23:26;;;;;;;;;;;19.70;45.90;;;;;;5095824;28;19924;-61
2023/12/14 07:25:53;;;;;;;;;;;19.70;45.90;;;;;;5096197;28;19947;-62
2023/12/14 07:28:20;;;;;;;;;;;19.70;45.90;;;;;;5098227;28;20388;-63
2023/12/14 07:30:47;;;;;;;;;;;19.70;45.80;;;;;;5092952;28;19931;-61
2023/12/14 07:33:15;;;;;;;;;;;19.70;45.80;;;;;;5092452;28;19970;-61
2023/12/14 07:35:42;;;;;;;;;;;19.70;45.80;;;;;;5082691;28;19931;-62
2023/12/14 07:38:09;;;;;;;;;;;19.70;45.80;;;;;;5102229;28;19958;-61
2023/12/14 07:40:35;;;;;;;;;;;19.70;45.80;;;;;;5093809;28;19931;-61
2023/12/14 07:43:02;;;;;;;;;;;19.70;45.80;;;;;;5109592;28;19943;-61
2023/12/14 07:45:29;;;;;;;;;;;19.70;45.80;;;;;;5090093;28;19928;-61
2023/12/14 07:47:56;;;;;;;;;;;19.70;45.80;;;;;;5100726;28;19928;-61
2023/12/14 07:50:24;;;;;;;;;;;19.70;45.80;;;;;;5081069;28;19935;-61
2023/12/14 07:52:51;;;;;;;;;;;19.70;45.80;;;;;;5092407;28;19965;-62
2023/12/14 07:55:18;;;;;;;;;;;19.70;45.80;;;;;;5085278;28;19936;-61
2023/12/14 07:57:45;;;;;;;;;;;19.70;45.70;;;;;;5098023;28;19935;-63
2023/12/14 08:00:12;;;;;;;;;;;19.70;45.80;;;;;;5094078;28;20350;-62
2023/12/14 08:02:39;;;;;;;;;;;19.70;45.80;;;;;;5092004;28;19924;-62
2023/12/14 08:05:06;;;;;;;;;;;19.70;45.80;;;;;;5091758;28;20308;-61
2023/12/14 08:07:34;;;;;;;;;;;19.70;45.80;;;;;;5097097;28;19984;-62
2023/12/14 08:10:01;;;;;;;;;;;19.70;45.90;;;;;;5101441;28;19924;-61
2023/12/14 08:12:28;;;;;;;;;;;19.70;45.80;;;;;;5114211;28;19931;-62
2023/12/14 08:14:55;;;;;;;;;;;19.70;45.90;;;;;;5089565;28;19932;-62
2023/12/14 08:17:22;;;;;;;;;;;19.70;45.80;;;;;;5103659;28;20143;-62
2023/12/14 08:19:48;;;;;;;;;;;19.70;45.90;;;;;;5113497;27;20017;-62
2023/12/14 08:22:15;;;;;;;;;;;19.70;45.90;;;;;;5091168;28;19945;-61
2023/12/14 08:24:43;;;;;;;;;;;19.70;45.80;;;;;;5093263;28;20350;-62
2023/12/14 08:27:10;;;;;;;;;;;19.70;45.90;;;;;;5109913;28;19928;-62
2023/12/14 08:29:37;;;;;;;;;;;19.70;45.90;;;;;;5093662;28;19933;-62
2023/12/14 08:32:04;;;;;;;;;;;19.70;45.90;;;;;;5105046;27;20255;-62
2023/12/14 08:34:30;;;;;;;;;;;19.70;45.90;;;;;;5104637;28;19932;-62
2023/12/14 08:36:57;;;;;;;;;;;19.70;45.90;;;;;;5103225;28;19985;-62
2023/12/14 08:39:24;;;;;;;;;;;19.70;45.90;;;;;;5096043;28;19924;-62
2023/12/14 08:41:52;;;;;;;;;;;19.70;45.90;;;;;;5104104;28;19928;-62
2023/12/14 08:44:19;;;;;;;;;;;19.70;45.90;;;;;;5113582;27;20229;-61
2023/12/14 08:46:46;;;;;;;;;;;19.70;45.90;;;;;;5092617;28;20345;-61
2023/12/14 08:49:13;;;;;;;;;;;19.70;45.90;;;;;;5099966;28;19973;-62
2023/12/14 08:51:40;;;;;;;;;;;19.70;45.90;;;;;;5094471;28;19928;-62
2023/12/14 08:54:07;;;;;;;;;;;19.70;45.90;;;;;;5110409;28;19924;-61
2023/12/14 08:56:34;;;;;;;;;;;19.70;45.80;;;;;;5094714;28;19934;-62
2023/12/14 08:59:03;;;;;;;;;;;19.70;45.80;;;;;;5091773;28;19927;-62
2023/12/14 09:01:29;;;;;;;;;;;19.70;45.80;;;;;;5100067;28;19923;-62
2023/12/14 09:03:56;;;;;;;;;;;19.70;45.80;;;;;;5099863;27;19945;-61
2023/12/14 09:06:23;;;;;;;;;;;19.70;45.80;;;;;;5102300;28;19930;-62
2023/12/14 09:08:49;;;;;;;;;;;19.70;45.80;;;;;;5095689;28;19981;-62
2023/12/14 09:11:16;;;;;;;;;;;19.70;45.80;;;;;;5092441;28;19931;-61
2023/12/14 09:13:43;;;;;;;;;;;19.70;45.80;;;;;;5095591;27;19973;-62
2023/12/14 09:16:12;;;;;;;;;;;19.70;45.80;;;;;;5094335;27;19931;-61
2023/12/14 09:18:38;;;;;;;;;;;19.80;46.00;;;;;;5091020;28;19935;-62
2023/12/14 09:21:05;;;;;;;;;;;19.80;46.00;;;;;;5096297;28;19923;-61
2023/12/14 09:23:32;;;;;;;;;;;19.80;46.00;;;;;;5094280;28;19939;-61
2023/12/14 09:25:59;;;;;;;;;;;19.80;46.00;;;;;;5109830;28;19932;-61
2023/12/14 09:28:26;;;;;;;;;;;19.80;46.10;;;;;;5094002;28;20262;-61
2023/12/14 09:30:53;;;;;;;;;;;19.80;46.00;;;;;;5102118;28;19975;-61
2023/12/14 09:33:21;;;;;;;;;;;19.80;46.10;;;;;;5105641;27;19932;-62
2023/12/14 09:35:48;;;;;;;;;;;19.80;46.10;;;;;;5101758;28;19924;-61
2023/12/14 09:38:17;;;;;;;;;;;19.70;46.00;;;;;;5111050;28;19927;-61
2023/12/14 09:40:44;;;;;;;;;;;19.80;46.10;;;;;;5087340;28;19973;-61
2023/12/14 09:43:11;;;;;;;;;;;19.70;46.10;;;;;;5111645;27;19928;-62
2023/12/14 09:45:38;;;;;;;;;;;19.80;46.10;;;;;;5098882;28;19950;-62
2023/12/14 09:48:05;;;;;;;;;;;19.80;46.10;;;;;;5096013;28;19923;-62
2023/12/14 09:50:33;;;;;;;;;;;19.80;46.10;;;;;;5112358;27;19924;-61
2023/12/14 09:53:00;;;;;;;;;;;19.80;46.10;;;;;;5094586;28;19981;-62
2023/12/14 09:55:26;;;;;;;;;;;19.80;46.10;;;;;;5107445;28;19931;-60
2023/12/14 09:57:54;;;;;;;;;;;19.80;46.10;;;;;;5101745;28;19931;-60
2023/12/14 10:00:33;;;;;;;;;;;19.80;46.10;;;;;;5098530;28;19936;-61
2023/12/14 10:03:02;;;;;;;;;;;19.80;46.20;;;;;;5089208;27;19939;-61
2023/12/14 10:05:28;;;;;;;;;;;19.80;46.20;;;;;;5093098;28;19998;-61
2023/12/14 10:07:56;;;;;;;;;;;19.80;46.20;;;;;;5104918;28;19931;-61
2023/12/14 10:10:23;;;;;;;;;;;19.80;46.20;;;;;;5096320;28;19943;-60
2023/12/14 10:12:54;;;;;;;;;;;19.80;46.20;;;;;;5097378;28;19967;-61
2023/12/14 10:15:23;;;;;;;;;;;19.80;46.30;;;;;;5100963;27;19943;-61
2023/12/14 10:17:53;;;;;;;;;;;19.80;46.20;;;;;;5095251;28;19935;-61
2023/12/14 10:20:21;;;;;;;;;;;19.80;46.30;;;;;;5100782;28;19934;-61
2023/12/14 10:22:48;;;;;;;;;;;19.80;46.30;;;;;;5099091;27;19986;-61
2023/12/14 10:25:17;;;;;;;;;;;19.80;46.30;;;;;;5100977;28;20022;-61
2023/12/14 10:27:43;;;;;;;;;;;19.80;46.30;;;;;;5097680;28;19924;-61
2023/12/14 10:30:12;;;;;;;;;;;19.80;46.30;;;;;;5090887;28;20071;-60
2023/12/14 10:32:40;;;;;;;;;;;19.80;46.40;;;;;;5100522;27;19945;-61
2023/12/14 10:35:07;;;;;;;;;;;19.80;46.40;;;;;;5108551;27;19931;-60
2023/12/14 10:37:34;;;;;;;;;;;19.80;46.40;;;;;;5097891;28;19934;-60
2023/12/14 10:40:01;;;;;;;;;;;19.80;46.30;;;;;;5092167;28;19935;-60
2023/12/14 10:42:29;;;;;;;;;;;19.80;46.30;;;;;;5092233;28;20228;-60
2023/12/14 10:44:56;;;;;;;;;;;19.80;46.30;;;;;;5088175;28;19977;-60
2023/12/14 10:47:23;;;;;;;;;;;19.80;46.30;;;;;;5082245;28;19931;-60
2023/12/14 10:49:51;;;;;;;;;;;19.80;46.40;;;;;;5080588;28;19932;-60
2023/12/14 10:52:17;;;;;;;;;;;19.80;46.40;;;;;;5092744;27;20018;-60
2023/12/14 10:54:44;;;;;;;;;;;19.80;46.40;;;;;;5092339;28;19923;-60
2023/12/14 10:57:11;;;;;;;;;;;19.80;46.40;;;;;;5085478;28;19932;-61
2023/12/14 10:59:40;;;;;;;;;;;19.80;46.40;;;;;;5109474;28;19985;-60
2023/12/14 11:02:11;;;;;;;;;;;19.80;46.40;;;;;;5095064;28;19989;-61
2023/12/14 11:04:52;;;;;;;;;;;19.80;46.40;;;;;;5098128;27;19935;-61
2023/12/14 11:07:19;;;;;;;;;;;19.80;46.40;;;;;;5093419;28;19927;-61
2023/12/14 11:09:46;;;;;;;;;;;19.80;46.50;;;;;;5095306;28;19972;-61
2023/12/14 11:12:13;;;;;;;;;;;19.80;47.10;;;;;;5078582;28;19924;-61
2023/12/14 11:14:42;;;;;;;;;;;19.80;46.50;;;;;;5090670;28;19928;-60
2023/12/14 11:17:09;;;;;;;;;;;19.80;46.50;;;;;;5107705;28;19930;-60
2023/12/14 11:19:36;;;;;;;;;;;19.80;46.50;;;;;;5106502;27;19928;-61
2023/12/14 11:22:17;;;;;;;;;;;19.80;46.50;;;;;;5077361;28;20012;-61
2023/12/14 11:24:44;;;;;;;;;;;19.80;46.50;;;;;;5087151;28;19931;-61
2023/12/14 11:27:12;;;;;;;;;;;19.80;46.50;;;;;;5087923;28;19928;-60
2023/12/14 11:29:41;;;;;;;;;;;19.90;46.60;;;;;;5087318;28;19920;-61
2023/12/14 11:32:07;;;;;;;;;;;19.80;46.60;;;;;;5107051;28;19932;-61
2023/12/14 11:34:34;;;;;;;;;;;19.90;46.60;;;;;;5085000;28;19930;-61
2023/12/14 11:37:01;;;;;;;;;;;19.90;46.60;;;;;;5102545;28;19932;-61
2023/12/14 11:39:30;;;;;;;;;;;19.80;46.60;;;;;;5102848;28;19924;-61
2023/12/14 11:42:00;;;;;;;;;;;19.90;46.60;;;;;;5101971;28;19927;-61
2023/12/14 11:44:27;;;;;;;;;;;19.80;46.50;;;;;;5083335;28;19988;-61
2023/12/14 11:46:55;;;;;;;;;;;19.80;46.60;;;;;;5088916;28;20011;-61
2023/12/14 11:49:22;;;;;;;;;;;19.80;46.60;;;;;;5084840;28;19932;-61
2023/12/14 11:51:49;;;;;;;;;;;19.90;46.60;;;;;;5092184;28;19928;-61
2023/12/14 11:54:15;;;;;;;;;;;19.90;46.60;;;;;;5111175;28;19923;-61
2023/12/14 11:56:46;;;;;;;;;;;19.80;46.60;;;;;;5105111;28;19935;-61
2023/12/14 11:59:14;;;;;;;;;;;19.90;46.60;;;;;;5101046;28;19931;-61
2023/12/14 12:01:40;;;;;;;;;;;19.80;46.60;;;;;;5098264;28;19927;-61
2023/12/14 12:04:11;;;;;;;;;;;19.80;46.60;;;;;;5100324;27;20150;-60
2023/12/14 12:06:37;;;;;;;;;;;19.80;46.60;;;;;;5109614;28;19953;-61
2023/12/14 12:09:08;;;;;;;;;;;19.90;46.70;;;;;;5098453;28;19928;-61
2023/12/14 12:11:34;;;;;;;;;;;19.90;46.70;;;;;;5090473;28;20050;-61
2023/12/14 12:14:01;;;;;;;;;;;19.90;46.70;;;;;;5087616;28;19934;-61
2023/12/14 12:16:28;;;;;;;;;;;19.90;47.30;;;;;;5119303;27;19931;-61
2023/12/14 12:18:55;;;;;;;;;;;19.90;46.70;;;;;;5098490;28;19923;-61
2023/12/14 12:21:23;;;;;;;;;;;19.80;46.70;;;;;;5087233;28;19976;-61
2023/12/14 12:23:50;;;;;;;;;;;19.90;46.80;;;;;;5101314;28;19928;-61
2023/12/14 12:26:16;;;;;;;;;;;19.80;46.60;;;;;;5091394;27;19924;-62
2023/12/14 12:28:43;;;;;;;;;;;19.80;46.70;;;;;;5093130;28;19970;-61
2023/12/14 12:31:10;;;;;;;;;;;19.90;46.70;;;;;;5101239;28;20158;-61
2023/12/14 12:33:37;;;;;;;;;;;19.80;46.70;;;;;;5098117;28;19931;-61
2023/12/14 12:36:05;;;;;;;;;;;19.90;46.70;;;;;;5092691;27;19935;-61
2023/12/14 12:38:33;;;;;;;;;;;19.90;46.70;;;;;;5119861;27;19963;-61
2023/12/14 12:41:01;;;;;;;;;;;19.80;46.60;;;;;;5093491;28;19958;-61
2023/12/14 12:43:29;;;;;;;;;;;19.90;46.70;;;;;;5090672;28;19919;-61
2023/12/14 12:45:57;;;;;;;;;;;19.80;46.60;;;;;;5086582;28;19924;-61
2023/12/14 12:48:23;;;;;;;;;;;19.80;46.60;;;;;;5114256;28;19989;-61
2023/12/14 12:50:50;;;;;;;;;;;19.80;46.60;;;;;;5112973;28;19946;-61
2023/12/14 12:53:17;;;;;;;;;;;19.90;46.60;;;;;;5099181;27;19929;-62
2023/12/14 12:55:46;;;;;;;;;;;19.90;46.70;;;;;;5108906;28;19977;-62
2023/12/14 12:58:14;;;;;;;;;;;19.90;46.70;;;;;;5093564;28;19924;-61
2023/12/14 13:00:41;;;;;;;;;;;19.90;46.60;;;;;;5104691;27;20050;-61
2023/12/14 13:03:08;;;;;;;;;;;19.90;46.70;;;;;;5111404;28;19935;-61
2023/12/14 13:05:34;;;;;;;;;;;19.90;46.60;;;;;;5109458;28;19928;-61
2023/12/14 13:08:01;;;;;;;;;;;19.90;46.70;;;;;;5110183;27;19977;-61
2023/12/14 13:10:28;;;;;;;;;;;19.90;46.60;;;;;;5104299;28;19924;-61
2023/12/14 13:12:56;;;;;;;;;;;19.90;46.70;;;;;;5083655;28;19924;-61
2023/12/14 13:15:24;;;;;;;;;;;19.90;46.70;;;;;;5107128;28;19938;-61
2023/12/14 13:17:51;;;;;;;;;;;19.90;46.60;;;;;;5093458;28;19928;-61
2023/12/14 13:20:19;;;;;;;;;;;19.90;46.70;;;;;;5103748;27;19932;-61
2023/12/14 13:22:46;;;;;;;;;;;19.90;46.70;;;;;;5089600;28;19924;-60
2023/12/14 13:25:13;;;;;;;;;;;19.90;46.60;;;;;;5104184;27;19985;-64
2023/12/14 13:27:40;;;;;;;;;;;19.90;46.60;;;;;;5092333;27;19931;-61
2023/12/14 13:30:09;;;;;;;;;;;19.90;46.60;;;;;;5097410;28;19924;-60
2023/12/14 13:32:36;;;;;;;;;;;19.90;46.60;;;;;;5103439;28;19924;-61
2023/12/14 13:35:03;;;;;;;;;;;19.90;46.70;;;;;;5102432;28;19924;-60
2023/12/14 13:37:30;;;;;;;;;;;19.90;46.70;;;;;;5091008;27;19939;-60
2023/12/14 13:39:57;;;;;;;;;;;19.90;46.70;;;;;;5097548;28;20357;-60
2023/12/14 13:42:23;;;;;;;;;;;19.90;46.70;;;;;;5088143;28;19928;-60
2023/12/14 13:44:50;;;;;;;;;;;19.90;46.70;;;;;;5108009;28;19927;-61
2023/12/14 13:47:18;;;;;;;;;;;19.90;46.70;;;;;;5114732;27;19924;-60
2023/12/14 13:49:45;;;;;;;;;;;19.90;46.70;;;;;;5092499;28;19927;-60
2023/12/14 13:52:12;;;;;;;;;;;19.90;46.70;;;;;;5093468;28;19931;-61
2023/12/14 13:54:39;;;;;;;;;;;19.90;46.70;;;;;;5089149;28;19935;-60
2023/12/14 13:57:05;;;;;;;;;;;19.90;46.70;;;;;;5102839;27;19928;-61
2023/12/14 13:59:32;;;;;;;;;;;19.90;46.70;;;;;;5084395;28;19932;-60
2023/12/14 14:01:59;;;;;;;;;;;19.90;46.80;;;;;;5090377;28;19928;-61
2023/12/14 14:04:27;;;;;;;;;;;19.90;46.70;;;;;;5105173;28;19953;-60
2023/12/14 14:06:54;;;;;;;;;;;19.90;46.80;;;;;;5082890;28;20332;-61
2023/12/14 14:09:22;;;;;;;;;;;19.90;46.70;;;;;;5107092;28;19932;-61
2023/12/14 14:11:50;;;;;;;;;;;19.90;46.80;;;;;;5089110;28;19935;-61
2023/12/14 14:14:17;;;;;;;;;;;19.90;46.70;;;;;;5090910;28;20392;-60
2023/12/14 14:16:43;;;;;;;;;;;19.90;46.80;;;;;;5087616;28;19930;-60